Aviation Digital Data Service (ADDS)

Output produced by METARs form (1709 UTC 29 May 2017)
found at http://www.aviationweather.gov/adds/metars/
 
TAF EGYP 291634Z 2918/3012 VRB07KT 9999 FEW002 SCT005 
     PROB30 
     TEMPO 2918/2920 1500 BR SCT002 
     TEMPO 2920/3003 1200 BR BKN002 
     PROB30 
     TEMPO 2920/2924 0500 FG SCT001 
     BECMG 3003/3006 34015G25KT 
     TEMPO 3003/3012 SCT010 
     BECMG 3009/3012 33025G35KT